createdAt,value
2023-03-31T00:00:42.847Z,64.78
2023-03-31T00:03:11.832Z,64.70
2023-03-31T00:05:40.502Z,63.83
2023-03-31T00:08:09.570Z,62.20
2023-03-31T00:10:42.754Z,66.72
2023-03-31T00:13:11.932Z,66.72
2023-03-31T00:15:43.294Z,74.03
2023-03-31T00:18:13.415Z,69.47
2023-03-31T00:20:43.173Z,64.00
2023-03-31T00:23:14.682Z,66.68
2023-03-31T00:25:46.217Z,65.85
2023-03-31T00:28:15.593Z,66.50
2023-03-31T00:30:45.022Z,70.57
2023-03-31T00:33:13.991Z,85.85
2023-03-31T00:35:43.746Z,91.05
2023-03-31T00:38:14.358Z,91.97
2023-03-31T00:40:48.427Z,86.28
2023-03-31T00:43:31.155Z,95.43
2023-03-31T00:46:09.735Z,83.28
2023-03-31T00:48:39.734Z,76.20
2023-03-31T00:51:11.880Z,78.63
2023-03-31T00:56:18.369Z,69.97
2023-03-31T00:58:49.955Z,60.85
2023-03-31T01:01:25.290Z,58.80
2023-03-31T01:03:55.746Z,61.65
2023-03-31T01:06:31.161Z,54.40
2023-03-31T01:09:04.231Z,54.90
2023-03-31T01:11:36.220Z,54.80
2023-03-31T01:14:05.584Z,45.65
2023-03-31T01:16:35.392Z,43.63
2023-03-31T01:19:07.438Z,43.53
2023-03-31T01:24:51.998Z,36.85
2023-03-31T01:27:57.664Z,40.22
2023-03-31T01:31:05.776Z,39.33
2023-03-31T01:34:15.529Z,33.22
2023-03-31T01:37:23.584Z,33.88
2023-03-31T01:40:10.002Z,31.23
2023-03-31T01:42:46.423Z,33.75
2023-03-31T01:45:26.739Z,32.28
2023-03-31T01:48:06.988Z,32.78
2023-03-31T01:50:47.601Z,28.70
2023-03-31T01:53:22.244Z,30.00
2023-03-31T01:56:01.762Z,30.20
2023-03-31T01:58:39.277Z,32.78
2023-03-31T02:01:15.021Z,32.13
2023-03-31T02:03:50.982Z,32.38
2023-03-31T02:06:24.562Z,34.35
2023-03-31T02:08:56.986Z,34.10
2023-03-31T02:11:34.644Z,35.72
2023-03-31T02:14:08.716Z,31.35
2023-03-31T02:16:47.523Z,29.73
2023-03-31T02:19:19.978Z,32.55
2023-03-31T02:21:50.817Z,32.88
2023-03-31T02:24:22.086Z,32.45
2023-03-31T02:26:56.531Z,29.17
2023-03-31T02:29:25.088Z,26.08
2023-03-31T02:32:02.356Z,32.65
2023-03-31T02:34:31.786Z,32.67
2023-03-31T02:37:00.743Z,27.70
2023-03-31T02:39:33.647Z,27.38
2023-03-31T02:42:08.116Z,30.88
2023-03-31T02:44:37.716Z,32.30
2023-03-31T02:47:10.000Z,31.05
2023-03-31T02:49:42.702Z,30.08
2023-03-31T02:52:25.239Z,31.70
2023-03-31T02:55:13.102Z,29.88
2023-03-31T02:58:12.573Z,30.38
2023-03-31T03:01:00.022Z,30.50
2023-03-31T03:03:40.189Z,30.88
2023-03-31T03:06:22.394Z,30.25
2023-03-31T03:09:05.137Z,33.88
2023-03-31T03:11:40.479Z,38.03
2023-03-31T03:14:18.528Z,34.45
2023-03-31T03:16:54.735Z,35.88
2023-03-31T03:19:24.901Z,31.83
2023-03-31T03:21:56.993Z,26.05
2023-03-31T03:24:31.536Z,26.77
2023-03-31T03:27:00.651Z,26.88
2023-03-31T03:29:29.674Z,30.17
2023-03-31T03:32:03.519Z,28.05
2023-03-31T03:34:33.185Z,25.17
2023-03-31T03:37:03.914Z,26.02
2023-03-31T03:39:32.790Z,26.10
2023-03-31T03:42:03.326Z,31.75
2023-03-31T03:44:33.636Z,27.85
2023-03-31T03:47:06.770Z,28.23
2023-03-31T03:49:37.732Z,26.60
2023-03-31T03:52:08.449Z,27.73
2023-03-31T03:54:37.256Z,28.00
2023-03-31T03:57:07.902Z,26.27
2023-03-31T03:59:36.638Z,26.08
2023-03-31T04:02:08.293Z,31.08
2023-03-31T04:04:38.767Z,28.02
2023-03-31T04:07:09.233Z,25.63
2023-03-31T04:09:38.421Z,29.55
2023-03-31T04:12:08.139Z,28.40
2023-03-31T04:14:36.552Z,25.63
2023-03-31T04:17:10.724Z,28.40
2023-03-31T04:19:42.628Z,23.35
2023-03-31T04:22:15.799Z,21.35
2023-03-31T04:24:52.915Z,20.30
2023-03-31T04:27:27.252Z,20.52
2023-03-31T04:29:55.945Z,18.27
2023-03-31T04:32:26.533Z,20.25
2023-03-31T04:35:04.057Z,21.30
2023-03-31T04:37:34.948Z,24.17
2023-03-31T04:40:10.030Z,26.08
2023-03-31T04:42:39.236Z,25.33
2023-03-31T04:45:08.407Z,21.88
2023-03-31T04:47:38.156Z,22.45
2023-03-31T04:50:09.715Z,25.17
2023-03-31T04:52:42.112Z,21.25
2023-03-31T04:55:12.094Z,23.42
2023-03-31T04:57:42.146Z,26.38
2023-03-31T05:00:12.520Z,25.20
2023-03-31T05:02:42.597Z,24.27
2023-03-31T05:05:12.240Z,26.52
2023-03-31T05:07:41.579Z,35.35
2023-03-31T05:10:13.139Z,40.83
2023-03-31T05:15:12.075Z,32.97
2023-03-31T05:17:44.228Z,31.40
2023-03-31T05:20:15.269Z,31.52
2023-03-31T05:22:49.126Z,33.10
2023-03-31T05:25:18.628Z,27.50
2023-03-31T05:27:49.870Z,26.75
2023-03-31T05:30:19.987Z,26.67
2023-03-31T05:32:53.109Z,29.53
2023-03-31T05:35:21.864Z,41.85
2023-03-31T05:37:50.658Z,35.40
2023-03-31T05:40:19.224Z,37.03
2023-03-31T05:42:49.553Z,39.15
2023-03-31T05:45:17.946Z,44.63
2023-03-31T05:47:46.675Z,42.70
2023-03-31T05:50:18.221Z,50.20
2023-03-31T05:52:47.158Z,50.45
2023-03-31T05:55:16.035Z,49.95
2023-03-31T05:57:48.952Z,50.45
2023-03-31T06:00:21.148Z,54.03
2023-03-31T06:02:52.206Z,52.72
2023-03-31T06:05:26.531Z,53.00
2023-03-31T06:07:59.685Z,47.53
2023-03-31T06:10:29.031Z,47.88
2023-03-31T06:13:00.512Z,47.47
2023-03-31T06:15:28.826Z,36.85
2023-03-31T06:17:57.526Z,32.50
2023-03-31T06:20:28.660Z,29.55
2023-03-31T06:22:57.147Z,33.88
2023-03-31T06:25:25.853Z,25.05
2023-03-31T06:27:54.619Z,22.48
2023-03-31T06:30:23.423Z,21.38
2023-03-31T06:32:52.009Z,23.48
2023-03-31T06:35:20.689Z,20.30
2023-03-31T06:37:54.141Z,20.35
2023-03-31T06:40:24.629Z,18.60
2023-03-31T06:42:53.557Z,19.27
2023-03-31T06:45:22.276Z,20.02
2023-03-31T06:47:50.647Z,20.50
2023-03-31T06:50:20.923Z,16.65
2023-03-31T06:52:52.890Z,18.80
2023-03-31T06:57:54.500Z,16.38
2023-03-31T07:00:26.057Z,19.25
2023-03-31T07:02:59.463Z,16.15
2023-03-31T07:05:29.055Z,16.25
2023-03-31T07:07:59.905Z,17.35
2023-03-31T07:10:32.710Z,13.68
2023-03-31T07:13:02.293Z,16.02
2023-03-31T07:15:31.861Z,17.13
2023-03-31T07:18:03.280Z,13.68
2023-03-31T07:20:33.034Z,15.02
2023-03-31T07:23:05.988Z,15.80
2023-03-31T07:25:37.235Z,15.65
2023-03-31T07:28:06.239Z,16.95
2023-03-31T07:30:34.795Z,14.20
2023-03-31T07:33:04.074Z,17.73
2023-03-31T07:35:32.922Z,15.95
2023-03-31T07:42:03.477Z,17.30
2023-03-31T07:44:42.167Z,19.25
2023-03-31T07:47:11.832Z,19.33
2023-03-31T07:49:40.842Z,18.25
2023-03-31T07:52:11.816Z,18.27
2023-03-31T07:54:40.217Z,17.17
2023-03-31T07:57:11.273Z,20.08
2023-03-31T07:59:41.363Z,18.45
2023-03-31T08:02:13.963Z,17.45
2023-03-31T08:04:43.955Z,16.05
2023-03-31T08:07:13.110Z,15.38
2023-03-31T08:09:42.052Z,18.35
2023-03-31T08:12:13.181Z,18.55
2023-03-31T08:14:42.074Z,14.38
2023-03-31T08:17:11.361Z,16.35
2023-03-31T08:19:40.341Z,15.32
2023-03-31T08:22:08.664Z,17.25
2023-03-31T08:24:37.193Z,19.58
2023-03-31T08:29:42.204Z,16.58
2023-03-31T08:32:10.742Z,15.13
2023-03-31T08:34:42.664Z,17.25
2023-03-31T08:37:11.550Z,16.88
2023-03-31T08:39:40.089Z,15.15
2023-03-31T08:42:15.904Z,16.52
2023-03-31T08:44:50.514Z,15.60
2023-03-31T08:47:23.496Z,15.85
2023-03-31T08:49:55.336Z,13.85
2023-03-31T08:54:57.808Z,12.77
2023-03-31T08:59:58.904Z,12.55
2023-03-31T09:02:36.703Z,12.70
2023-03-31T09:05:33.149Z,13.70
2023-03-31T09:08:12.697Z,17.27
2023-03-31T09:10:52.077Z,12.77
2023-03-31T09:13:47.942Z,16.27
2023-03-31T09:16:25.936Z,13.20
2023-03-31T09:18:55.886Z,13.05
2023-03-31T09:21:29.759Z,12.05
2023-03-31T09:24:04.107Z,16.20
2023-03-31T09:26:38.675Z,16.13
2023-03-31T09:29:15.651Z,11.75
2023-03-31T09:31:49.572Z,13.07
2023-03-31T09:34:23.959Z,14.38
2023-03-31T09:36:53.440Z,12.73
2023-03-31T09:39:22.238Z,15.88
2023-03-31T09:41:52.244Z,11.55
2023-03-31T09:44:26.091Z,12.23
2023-03-31T09:46:56.741Z,14.13
2023-03-31T09:49:28.430Z,13.25
2023-03-31T09:54:38.851Z,11.68
2023-03-31T09:57:15.891Z,11.10
2023-03-31T09:59:46.605Z,11.25
2023-03-31T10:02:30.767Z,10.50
2023-03-31T10:05:01.686Z,10.13
2023-03-31T10:07:31.218Z,10.45
2023-03-31T10:10:00.514Z,11.40
2023-03-31T10:12:31.193Z,11.48
2023-03-31T10:15:19.793Z,10.60
2023-03-31T10:20:32.180Z,11.07
2023-03-31T10:23:05.112Z,11.57
2023-03-31T10:25:35.649Z,11.75
2023-03-31T10:30:39.662Z,9.82
2023-03-31T10:33:22.556Z,12.48
2023-03-31T10:35:57.078Z,11.35
2023-03-31T10:38:29.616Z,11.80
2023-03-31T10:41:00.313Z,12.00
2023-03-31T10:43:31.651Z,9.55
2023-03-31T10:46:06.500Z,12.52
2023-03-31T10:48:39.203Z,10.27
2023-03-31T10:51:14.896Z,9.85
2023-03-31T10:53:44.632Z,11.50
2023-03-31T10:56:35.322Z,10.27
2023-03-31T10:59:20.692Z,9.80
2023-03-31T11:02:00.623Z,9.93
2023-03-31T11:04:48.242Z,9.20
2023-03-31T11:07:33.778Z,12.13
2023-03-31T11:10:23.219Z,11.80
2023-03-31T11:12:56.982Z,10.75
2023-03-31T11:15:31.521Z,11.77
2023-03-31T11:18:12.897Z,9.23
2023-03-31T11:20:57.715Z,10.10
2023-03-31T11:23:40.529Z,10.13
2023-03-31T11:26:13.451Z,10.75
2023-03-31T11:28:52.253Z,10.40
2023-03-31T11:31:34.688Z,10.95
2023-03-31T11:34:23.064Z,12.98
2023-03-31T11:37:13.431Z,9.27
2023-03-31T11:39:56.003Z,11.52
2023-03-31T11:42:29.404Z,11.70
2023-03-31T11:45:02.242Z,11.13
2023-03-31T11:47:37.406Z,10.10
2023-03-31T11:50:12.387Z,8.27
2023-03-31T11:52:47.208Z,10.23
2023-03-31T11:55:19.298Z,8.43
2023-03-31T11:57:53.138Z,8.63
2023-03-31T12:00:24.292Z,10.98
2023-03-31T12:02:56.102Z,10.98
2023-03-31T12:05:27.546Z,8.27
2023-03-31T12:08:04.369Z,10.02
2023-03-31T12:10:36.748Z,10.90
2023-03-31T12:13:26.560Z,10.15
2023-03-31T12:16:03.319Z,10.23
2023-03-31T12:18:39.393Z,9.77
2023-03-31T12:21:09.510Z,9.23
2023-03-31T12:23:44.306Z,8.38
2023-03-31T12:26:26.323Z,8.48
2023-03-31T12:29:01.751Z,11.23
2023-03-31T12:31:33.202Z,7.85
2023-03-31T12:34:06.782Z,11.27
2023-03-31T12:36:48.186Z,13.20
2023-03-31T12:39:33.947Z,11.02
2023-03-31T12:42:37.742Z,10.10
2023-03-31T12:45:18.793Z,11.00
2023-03-31T12:48:05.921Z,11.20
2023-03-31T12:51:08.600Z,10.73
2023-03-31T12:53:46.352Z,16.55
2023-03-31T12:56:16.837Z,16.48
2023-03-31T12:58:47.294Z,9.20
2023-03-31T13:01:21.750Z,10.30
2023-03-31T13:04:10.191Z,12.40
2023-03-31T13:06:57.227Z,10.75
2023-03-31T13:09:55.632Z,12.98
2023-03-31T13:12:28.321Z,9.32
2023-03-31T13:15:00.309Z,11.05
2023-03-31T13:17:39.824Z,12.88
2023-03-31T13:20:28.957Z,9.88
2023-03-31T13:23:03.724Z,10.32
2023-03-31T13:25:44.037Z,11.50
2023-03-31T13:28:28.113Z,13.13
2023-03-31T13:31:02.202Z,10.85
2023-03-31T13:33:36.547Z,10.10
2023-03-31T13:36:38.338Z,9.68
2023-03-31T13:39:28.222Z,10.23
2023-03-31T13:42:12.632Z,10.13
2023-03-31T13:45:00.786Z,9.48
2023-03-31T13:47:45.733Z,12.13
2023-03-31T13:50:26.948Z,11.98
2023-03-31T13:53:06.650Z,12.17
2023-03-31T13:55:57.724Z,10.82
2023-03-31T13:59:05.686Z,9.98
2023-03-31T14:02:01.973Z,8.88
2023-03-31T14:04:57.267Z,9.93
2023-03-31T14:07:33.787Z,9.50
2023-03-31T14:10:04.953Z,10.15
2023-03-31T14:12:35.447Z,10.45
2023-03-31T14:15:05.075Z,12.13
2023-03-31T14:17:38.958Z,8.00
2023-03-31T14:20:24.613Z,11.52
2023-03-31T14:23:02.618Z,9.77
2023-03-31T14:25:42.958Z,13.73
2023-03-31T14:28:36.253Z,9.27
2023-03-31T14:31:15.762Z,10.40
2023-03-31T14:33:55.353Z,13.38
2023-03-31T14:36:33.095Z,10.40
2023-03-31T14:39:05.649Z,12.20
2023-03-31T14:41:37.967Z,9.18
2023-03-31T14:44:15.504Z,9.65
2023-03-31T14:46:49.492Z,10.13
2023-03-31T14:49:26.178Z,12.52
2023-03-31T14:52:00.115Z,12.57
2023-03-31T14:54:28.797Z,9.13
2023-03-31T14:57:02.440Z,11.52
2023-03-31T14:59:34.835Z,9.68
2023-03-31T15:02:06.258Z,10.35
2023-03-31T15:04:46.656Z,10.70
2023-03-31T15:07:18.806Z,11.20
2023-03-31T15:09:52.051Z,12.77
2023-03-31T15:12:23.189Z,11.13
2023-03-31T15:14:55.500Z,12.10
2023-03-31T15:17:25.905Z,10.93
2023-03-31T15:19:58.440Z,10.07
2023-03-31T15:22:28.058Z,12.98
2023-03-31T15:24:59.326Z,12.10
2023-03-31T15:30:26.191Z,14.60
2023-03-31T15:35:47.166Z,11.32
2023-03-31T15:40:52.190Z,11.45
2023-03-31T15:43:31.439Z,13.93
2023-03-31T15:46:00.693Z,11.70
2023-03-31T15:48:34.282Z,10.60
2023-03-31T15:51:08.414Z,12.30
2023-03-31T15:53:47.009Z,13.13
2023-03-31T15:56:31.463Z,13.55
2023-03-31T15:59:05.048Z,10.77
2023-03-31T16:01:35.902Z,11.57
2023-03-31T16:04:09.823Z,11.25
2023-03-31T16:06:49.236Z,13.80
2023-03-31T16:09:23.283Z,12.65
2023-03-31T16:11:54.578Z,10.30
2023-03-31T16:14:27.985Z,12.37
2023-03-31T16:16:59.660Z,12.45
2023-03-31T16:19:32.517Z,11.80
2023-03-31T16:22:04.998Z,12.25
2023-03-31T16:24:36.164Z,8.88
2023-03-31T16:27:08.948Z,8.82
2023-03-31T16:29:39.488Z,8.93
2023-03-31T16:32:13.291Z,9.63
2023-03-31T16:34:55.322Z,8.48
2023-03-31T16:39:54.280Z,9.32
2023-03-31T16:42:23.123Z,13.35
2023-03-31T16:45:09.605Z,11.82
2023-03-31T16:47:45.597Z,11.02
2023-03-31T16:50:15.731Z,8.50
2023-03-31T16:52:48.100Z,10.68
2023-03-31T16:55:16.613Z,10.88
2023-03-31T16:57:45.222Z,10.30
2023-03-31T17:00:17.536Z,11.15
2023-03-31T17:02:46.906Z,9.15
2023-03-31T17:05:15.936Z,9.63
2023-03-31T17:07:47.935Z,9.98
2023-03-31T17:10:17.618Z,10.15
2023-03-31T17:12:46.116Z,9.90
2023-03-31T17:15:14.947Z,8.45
2023-03-31T17:17:43.577Z,11.48
2023-03-31T17:20:13.407Z,9.25
2023-03-31T17:22:42.261Z,9.35
2023-03-31T17:25:12.790Z,11.82
2023-03-31T17:27:41.487Z,11.35
2023-03-31T17:30:11.279Z,8.45
2023-03-31T17:32:41.257Z,9.63
2023-03-31T17:35:13.573Z,8.70
2023-03-31T17:37:41.864Z,12.70
2023-03-31T17:40:13.624Z,10.32
2023-03-31T17:45:12.174Z,10.85
2023-03-31T17:47:41.854Z,12.02
2023-03-31T17:50:15.060Z,12.20
2023-03-31T17:52:43.973Z,12.20
2023-03-31T17:55:14.529Z,11.68
2023-03-31T17:57:43.356Z,13.40
2023-03-31T18:00:16.305Z,14.25
2023-03-31T18:02:45.131Z,17.05
2023-03-31T18:05:15.283Z,12.82
2023-03-31T18:07:45.746Z,14.50
2023-03-31T18:10:15.745Z,10.63
2023-03-31T18:12:44.741Z,14.07
2023-03-31T18:15:14.072Z,19.95
2023-03-31T18:17:43.313Z,11.02
2023-03-31T18:20:13.277Z,11.25
2023-03-31T18:22:42.260Z,11.88
2023-03-31T18:25:11.869Z,11.10
2023-03-31T18:27:44.622Z,13.13
2023-03-31T18:30:14.696Z,14.15
2023-03-31T18:32:46.386Z,12.52
2023-03-31T18:35:16.831Z,11.15
2023-03-31T18:37:46.746Z,14.15
2023-03-31T18:40:20.764Z,14.88
2023-03-31T18:42:51.493Z,14.00
2023-03-31T18:45:20.056Z,12.88
2023-03-31T18:47:48.282Z,14.70
2023-03-31T18:50:17.591Z,14.90
2023-03-31T18:52:47.661Z,15.93
2023-03-31T18:55:18.384Z,13.45
2023-03-31T18:57:47.151Z,14.77
2023-03-31T19:00:18.855Z,11.95
2023-03-31T19:02:47.787Z,12.63
2023-03-31T19:05:18.716Z,14.70
2023-03-31T19:07:46.932Z,13.25
2023-03-31T19:10:15.562Z,13.05
2023-03-31T19:12:47.805Z,11.52
2023-03-31T19:15:18.189Z,11.30
2023-03-31T19:17:47.347Z,14.07
2023-03-31T19:20:17.549Z,14.35
2023-03-31T19:22:47.048Z,13.52
2023-03-31T19:25:16.567Z,12.82
2023-03-31T19:27:45.364Z,12.18
2023-03-31T19:30:20.561Z,11.35
2023-03-31T19:32:50.692Z,13.38
2023-03-31T19:35:23.210Z,11.20
2023-03-31T19:37:52.641Z,10.40
2023-03-31T19:40:21.715Z,12.32
2023-03-31T19:42:50.730Z,10.13
2023-03-31T19:45:21.836Z,9.48
2023-03-31T19:47:50.532Z,7.85
2023-03-31T19:50:19.302Z,7.68
2023-03-31T19:52:49.781Z,7.95
2023-03-31T19:55:20.068Z,8.27
2023-03-31T19:57:48.361Z,10.52
2023-03-31T20:00:19.633Z,8.38
2023-03-31T20:02:50.338Z,9.35
2023-03-31T20:05:20.915Z,7.40
2023-03-31T20:07:49.751Z,7.30
2023-03-31T20:10:18.455Z,8.93
2023-03-31T20:12:47.453Z,9.75
2023-03-31T20:15:16.474Z,8.30
2023-03-31T20:17:45.173Z,7.65
2023-03-31T20:20:15.384Z,6.82
2023-03-31T20:22:43.987Z,7.82
2023-03-31T20:25:12.174Z,7.47
2023-03-31T20:27:42.138Z,8.50
2023-03-31T20:30:12.750Z,6.67
2023-03-31T20:32:41.379Z,5.85
2023-03-31T20:35:09.849Z,7.45
2023-03-31T20:37:39.677Z,8.23
2023-03-31T20:40:09.237Z,7.38
2023-03-31T20:42:39.064Z,5.82
2023-03-31T20:45:08.714Z,8.13
2023-03-31T20:47:37.249Z,8.57
2023-03-31T20:50:06.463Z,6.65
2023-03-31T20:52:34.910Z,6.10
2023-03-31T20:55:04.912Z,7.35
2023-03-31T20:57:33.352Z,6.93
2023-03-31T21:00:02.152Z,8.90
2023-03-31T21:02:31.421Z,6.38
2023-03-31T21:05:00.758Z,7.72
2023-03-31T21:07:31.124Z,5.65
2023-03-31T21:10:00.909Z,6.22
2023-03-31T21:12:33.094Z,6.18
2023-03-31T21:15:03.450Z,9.13
2023-03-31T21:17:32.149Z,6.57
2023-03-31T21:20:00.740Z,8.07
2023-03-31T21:22:29.676Z,9.15
2023-03-31T21:24:58.080Z,8.00
2023-03-31T21:27:26.544Z,7.97
2023-03-31T21:29:56.311Z,7.38
2023-03-31T21:32:24.940Z,6.65
2023-03-31T21:34:53.481Z,8.25
2023-03-31T21:37:22.143Z,8.20
2023-03-31T21:39:50.773Z,7.97
2023-03-31T21:42:19.235Z,8.07
2023-03-31T21:44:49.927Z,7.93
2023-03-31T21:47:19.699Z,9.25
2023-03-31T21:49:48.055Z,9.30
2023-03-31T21:52:17.017Z,8.10
2023-03-31T21:54:45.696Z,11.77
2023-03-31T21:57:14.099Z,19.08
2023-03-31T21:59:42.613Z,94.95
2023-03-31T22:02:11.452Z,53.95
2023-03-31T22:04:41.707Z,13.18
2023-03-31T22:07:10.821Z,12.90
2023-03-31T22:09:41.150Z,9.68
2023-03-31T22:12:10.044Z,9.23
2023-03-31T22:14:38.901Z,10.02
2023-03-31T22:17:07.263Z,10.02
2023-03-31T22:19:35.685Z,10.00
2023-03-31T22:22:06.528Z,9.63
2023-03-31T22:24:34.983Z,11.55
2023-03-31T22:27:03.438Z,10.90
2023-03-31T22:29:32.584Z,11.93
2023-03-31T22:32:01.429Z,11.13
2023-03-31T22:34:29.866Z,9.98
2023-03-31T22:36:59.421Z,11.60
2023-03-31T22:39:29.591Z,12.38
2023-03-31T22:41:57.822Z,9.77
2023-03-31T22:44:26.154Z,11.00
2023-03-31T22:46:54.607Z,12.65
2023-03-31T22:49:22.982Z,14.38
2023-03-31T22:51:54.312Z,13.77
2023-03-31T22:54:22.651Z,16.17
2023-03-31T22:56:53.044Z,18.15
2023-03-31T22:59:21.670Z,21.85
2023-03-31T23:01:52.984Z,19.70
2023-03-31T23:04:23.324Z,12.98
2023-03-31T23:06:52.930Z,12.02
2023-03-31T23:09:21.579Z,12.73
2023-03-31T23:11:53.245Z,11.68
2023-03-31T23:14:22.030Z,12.23
2023-03-31T23:16:51.776Z,13.63
2023-03-31T23:19:20.174Z,15.32
2023-03-31T23:21:48.344Z,14.68
2023-03-31T23:24:20.617Z,13.75
2023-03-31T23:26:49.158Z,11.18
2023-03-31T23:29:21.059Z,12.82
2023-03-31T23:31:49.644Z,10.18
2023-03-31T23:34:18.680Z,9.98
2023-03-31T23:36:46.913Z,13.20
2023-03-31T23:39:15.490Z,12.82
2023-03-31T23:41:43.956Z,13.02
2023-03-31T23:44:13.155Z,12.30
2023-03-31T23:46:45.898Z,13.18
2023-03-31T23:49:14.195Z,12.25
2023-03-31T23:51:42.649Z,11.27
2023-03-31T23:54:11.970Z,13.43
2023-03-31T23:56:40.162Z,12.15
2023-03-31T23:59:08.425Z,12.38
